sensor_id;sensor_type;location;lat;lon;timestamp;P1;durP1;ratioP1;P2;durP2;ratioP2
5133;SDS011;2585;48.696;10.066;2023-09-08T00:00:19;6.60;;;5.30;;
5133;SDS011;2585;48.696;10.066;2023-09-08T00:02:46;9.20;;;5.60;;
5133;SDS011;2585;48.696;10.066;2023-09-08T00:05:13;6.60;;;5.63;;
5133;SDS011;2585;48.696;10.066;2023-09-08T00:07:40;8.57;;;5.70;;
5133;SDS011;2585;48.696;10.066;2023-09-08T00:10:09;9.80;;;5.77;;
5133;SDS011;2585;48.696;10.066;2023-09-08T00:12:37;8.30;;;6.37;;
5133;SDS011;2585;48.696;10.066;2023-09-08T00:15:05;12.37;;;6.53;;
5133;SDS011;2585;48.696;10.066;2023-09-08T00:17:32;8.67;;;6.13;;
5133;SDS011;2585;48.696;10.066;2023-09-08T00:19:59;8.20;;;6.10;;
5133;SDS011;2585;48.696;10.066;2023-09-08T00:22:26;9.20;;;6.40;;
5133;SDS011;2585;48.696;10.066;2023-09-08T00:24:53;6.83;;;6.07;;
5133;SDS011;2585;48.696;10.066;2023-09-08T00:27:21;6.57;;;5.90;;
5133;SDS011;2585;48.696;10.066;2023-09-08T00:29:48;8.47;;;6.53;;
5133;SDS011;2585;48.696;10.066;2023-09-08T00:32:15;7.17;;;6.10;;
5133;SDS011;2585;48.696;10.066;2023-09-08T00:34:42;8.07;;;5.80;;
5133;SDS011;2585;48.696;10.066;2023-09-08T00:37:09;7.30;;;5.40;;
5133;SDS011;2585;48.696;10.066;2023-09-08T00:39:37;9.50;;;6.10;;
5133;SDS011;2585;48.696;10.066;2023-09-08T00:42:04;7.50;;;5.73;;
5133;SDS011;2585;48.696;10.066;2023-09-08T00:44:32;8.20;;;5.70;;
5133;SDS011;2585;48.696;10.066;2023-09-08T00:47:00;8.53;;;5.73;;
5133;SDS011;2585;48.696;10.066;2023-09-08T00:49:27;7.20;;;6.03;;
5133;SDS011;2585;48.696;10.066;2023-09-08T00:51:54;8.37;;;6.47;;
5133;SDS011;2585;48.696;10.066;2023-09-08T00:54:22;8.83;;;5.77;;
5133;SDS011;2585;48.696;10.066;2023-09-08T00:56:49;9.93;;;5.40;;
5133;SDS011;2585;48.696;10.066;2023-09-08T00:59:23;6.53;;;5.77;;
5133;SDS011;2585;48.696;10.066;2023-09-08T01:01:51;8.20;;;6.33;;
5133;SDS011;2585;48.696;10.066;2023-09-08T01:04:20;10.70;;;6.60;;
5133;SDS011;2585;48.696;10.066;2023-09-08T01:06:47;9.90;;;6.20;;
5133;SDS011;2585;48.696;10.066;2023-09-08T01:09:14;8.13;;;6.50;;
5133;SDS011;2585;48.696;10.066;2023-09-08T01:11:41;9.93;;;6.00;;
5133;SDS011;2585;48.696;10.066;2023-09-08T01:14:11;6.77;;;5.10;;
5133;SDS011;2585;48.696;10.066;2023-09-08T01:16:39;6.50;;;5.77;;
5133;SDS011;2585;48.696;10.066;2023-09-08T01:19:07;13.03;;;6.07;;
5133;SDS011;2585;48.696;10.066;2023-09-08T01:27:31;8.13;;;5.30;;
5133;SDS011;2585;48.696;10.066;2023-09-08T01:30:04;6.30;;;5.27;;
5133;SDS011;2585;48.696;10.066;2023-09-08T01:32:32;6.60;;;5.73;;
5133;SDS011;2585;48.696;10.066;2023-09-08T01:35:00;8.73;;;5.90;;
5133;SDS011;2585;48.696;10.066;2023-09-08T01:37:28;8.33;;;5.83;;
5133;SDS011;2585;48.696;10.066;2023-09-08T01:39:55;8.77;;;5.90;;
5133;SDS011;2585;48.696;10.066;2023-09-08T01:42:22;8.13;;;6.00;;
5133;SDS011;2585;48.696;10.066;2023-09-08T01:44:49;8.43;;;6.27;;
5133;SDS011;2585;48.696;10.066;2023-09-08T01:47:16;12.63;;;6.00;;
5133;SDS011;2585;48.696;10.066;2023-09-08T01:49:43;8.40;;;5.80;;
5133;SDS011;2585;48.696;10.066;2023-09-08T01:52:09;7.30;;;6.10;;
5133;SDS011;2585;48.696;10.066;2023-09-08T01:54:36;6.83;;;6.10;;
5133;SDS011;2585;48.696;10.066;2023-09-08T01:57:03;11.70;;;6.40;;
5133;SDS011;2585;48.696;10.066;2023-09-08T01:59:30;9.60;;;6.33;;
5133;SDS011;2585;48.696;10.066;2023-09-08T02:01:57;9.73;;;7.03;;
5133;SDS011;2585;48.696;10.066;2023-09-08T02:04:24;7.90;;;5.87;;
5133;SDS011;2585;48.696;10.066;2023-09-08T02:06:51;7.20;;;6.30;;
5133;SDS011;2585;48.696;10.066;2023-09-08T02:09:18;7.80;;;6.60;;
5133;SDS011;2585;48.696;10.066;2023-09-08T02:11:44;7.87;;;6.40;;
5133;SDS011;2585;48.696;10.066;2023-09-08T02:14:11;10.20;;;6.97;;
5133;SDS011;2585;48.696;10.066;2023-09-08T02:16:38;8.13;;;6.00;;
5133;SDS011;2585;48.696;10.066;2023-09-08T02:19:06;7.90;;;6.63;;
5133;SDS011;2585;48.696;10.066;2023-09-08T02:21:33;6.80;;;5.77;;
5133;SDS011;2585;48.696;10.066;2023-09-08T02:23:59;9.43;;;6.43;;
5133;SDS011;2585;48.696;10.066;2023-09-08T02:26:26;8.67;;;6.50;;
5133;SDS011;2585;48.696;10.066;2023-09-08T02:28:53;6.23;;;5.47;;
5133;SDS011;2585;48.696;10.066;2023-09-08T02:31:20;8.93;;;5.73;;
5133;SDS011;2585;48.696;10.066;2023-09-08T02:33:47;7.77;;;6.10;;
5133;SDS011;2585;48.696;10.066;2023-09-08T02:36:14;12.60;;;5.97;;
5133;SDS011;2585;48.696;10.066;2023-09-08T02:38:41;8.20;;;6.37;;
5133;SDS011;2585;48.696;10.066;2023-09-08T02:41:07;9.90;;;6.13;;
5133;SDS011;2585;48.696;10.066;2023-09-08T02:43:34;8.40;;;6.07;;
5133;SDS011;2585;48.696;10.066;2023-09-08T02:46:01;7.90;;;6.07;;
5133;SDS011;2585;48.696;10.066;2023-09-08T02:48:28;8.67;;;5.97;;
5133;SDS011;2585;48.696;10.066;2023-09-08T02:50:55;13.83;;;6.60;;
5133;SDS011;2585;48.696;10.066;2023-09-08T02:53:22;9.23;;;6.80;;
5133;SDS011;2585;48.696;10.066;2023-09-08T02:55:49;9.40;;;6.47;;
5133;SDS011;2585;48.696;10.066;2023-09-08T02:58:16;11.10;;;6.33;;
5133;SDS011;2585;48.696;10.066;2023-09-08T03:00:43;6.67;;;5.77;;
5133;SDS011;2585;48.696;10.066;2023-09-08T03:03:10;7.23;;;5.63;;
5133;SDS011;2585;48.696;10.066;2023-09-08T03:05:36;7.50;;;6.00;;
5133;SDS011;2585;48.696;10.066;2023-09-08T03:08:03;8.37;;;6.30;;
5133;SDS011;2585;48.696;10.066;2023-09-08T03:10:31;7.37;;;6.50;;
5133;SDS011;2585;48.696;10.066;2023-09-08T03:13:05;7.93;;;5.97;;
5133;SDS011;2585;48.696;10.066;2023-09-08T03:15:34;8.10;;;5.73;;
5133;SDS011;2585;48.696;10.066;2023-09-08T03:18:01;8.63;;;6.83;;
5133;SDS011;2585;48.696;10.066;2023-09-08T03:20:27;7.10;;;5.17;;
5133;SDS011;2585;48.696;10.066;2023-09-08T03:22:54;8.70;;;6.30;;
5133;SDS011;2585;48.696;10.066;2023-09-08T03:25:21;6.97;;;5.43;;
5133;SDS011;2585;48.696;10.066;2023-09-08T03:27:48;9.57;;;6.03;;
5133;SDS011;2585;48.696;10.066;2023-09-08T03:30:15;9.33;;;6.77;;
5133;SDS011;2585;48.696;10.066;2023-09-08T03:32:42;6.83;;;5.77;;
5133;SDS011;2585;48.696;10.066;2023-09-08T03:35:09;8.93;;;5.83;;
5133;SDS011;2585;48.696;10.066;2023-09-08T03:37:36;8.77;;;6.47;;
5133;SDS011;2585;48.696;10.066;2023-09-08T03:40:03;10.13;;;6.53;;
5133;SDS011;2585;48.696;10.066;2023-09-08T03:42:33;8.03;;;5.67;;
5133;SDS011;2585;48.696;10.066;2023-09-08T03:45:01;10.50;;;6.60;;
5133;SDS011;2585;48.696;10.066;2023-09-08T03:47:28;7.57;;;5.40;;
5133;SDS011;2585;48.696;10.066;2023-09-08T03:49:55;7.00;;;5.43;;
5133;SDS011;2585;48.696;10.066;2023-09-08T03:52:22;8.47;;;6.30;;
5133;SDS011;2585;48.696;10.066;2023-09-08T03:54:49;7.00;;;5.83;;
5133;SDS011;2585;48.696;10.066;2023-09-08T03:57:16;9.13;;;5.60;;
5133;SDS011;2585;48.696;10.066;2023-09-08T03:59:43;9.40;;;6.40;;
5133;SDS011;2585;48.696;10.066;2023-09-08T04:02:09;8.10;;;6.00;;
5133;SDS011;2585;48.696;10.066;2023-09-08T04:04:36;8.37;;;6.83;;
5133;SDS011;2585;48.696;10.066;2023-09-08T04:07:03;7.40;;;6.20;;
5133;SDS011;2585;48.696;10.066;2023-09-08T04:09:30;6.83;;;6.13;;
5133;SDS011;2585;48.696;10.066;2023-09-08T04:11:58;7.50;;;6.40;;
5133;SDS011;2585;48.696;10.066;2023-09-08T04:14:25;9.90;;;6.63;;
5133;SDS011;2585;48.696;10.066;2023-09-08T04:16:53;14.00;;;7.20;;
5133;SDS011;2585;48.696;10.066;2023-09-08T04:19:20;7.27;;;6.10;;
5133;SDS011;2585;48.696;10.066;2023-09-08T04:21:47;8.20;;;6.30;;
5133;SDS011;2585;48.696;10.066;2023-09-08T04:24:13;8.80;;;6.30;;
5133;SDS011;2585;48.696;10.066;2023-09-08T04:26:40;9.23;;;5.80;;
5133;SDS011;2585;48.696;10.066;2023-09-08T04:29:07;8.20;;;6.40;;
5133;SDS011;2585;48.696;10.066;2023-09-08T04:31:34;7.60;;;6.30;;
5133;SDS011;2585;48.696;10.066;2023-09-08T04:34:01;6.27;;;5.63;;
5133;SDS011;2585;48.696;10.066;2023-09-08T04:36:28;7.50;;;6.70;;
5133;SDS011;2585;48.696;10.066;2023-09-08T04:38:56;7.83;;;5.60;;
5133;SDS011;2585;48.696;10.066;2023-09-08T04:41:23;10.93;;;6.40;;
5133;SDS011;2585;48.696;10.066;2023-09-08T04:43:50;12.83;;;5.93;;
5133;SDS011;2585;48.696;10.066;2023-09-08T04:46:16;10.43;;;6.90;;
5133;SDS011;2585;48.696;10.066;2023-09-08T04:48:44;7.17;;;5.90;;
5133;SDS011;2585;48.696;10.066;2023-09-08T04:51:11;9.30;;;5.60;;
5133;SDS011;2585;48.696;10.066;2023-09-08T04:53:38;9.17;;;6.10;;
5133;SDS011;2585;48.696;10.066;2023-09-08T04:56:05;7.00;;;5.70;;
5133;SDS011;2585;48.696;10.066;2023-09-08T04:58:31;11.20;;;6.93;;
5133;SDS011;2585;48.696;10.066;2023-09-08T05:00:59;8.50;;;6.47;;
5133;SDS011;2585;48.696;10.066;2023-09-08T05:03:25;8.10;;;5.90;;
5133;SDS011;2585;48.696;10.066;2023-09-08T05:05:52;9.47;;;6.50;;
5133;SDS011;2585;48.696;10.066;2023-09-08T05:08:19;8.30;;;6.17;;
5133;SDS011;2585;48.696;10.066;2023-09-08T05:10:46;10.43;;;5.70;;
5133;SDS011;2585;48.696;10.066;2023-09-08T05:13:13;8.63;;;6.50;;
5133;SDS011;2585;48.696;10.066;2023-09-08T05:15:56;8.70;;;6.90;;
5133;SDS011;2585;48.696;10.066;2023-09-08T05:18:38;6.47;;;5.53;;
5133;SDS011;2585;48.696;10.066;2023-09-08T05:21:06;12.37;;;6.37;;
5133;SDS011;2585;48.696;10.066;2023-09-08T05:23:33;9.90;;;6.20;;
5133;SDS011;2585;48.696;10.066;2023-09-08T05:26:00;9.80;;;7.10;;
5133;SDS011;2585;48.696;10.066;2023-09-08T05:28:27;16.30;;;7.00;;
5133;SDS011;2585;48.696;10.066;2023-09-08T05:30:54;9.30;;;5.97;;
5133;SDS011;2585;48.696;10.066;2023-09-08T05:33:21;8.50;;;6.60;;
5133;SDS011;2585;48.696;10.066;2023-09-08T05:35:48;9.20;;;6.80;;
5133;SDS011;2585;48.696;10.066;2023-09-08T05:38:15;20.20;;;8.33;;
5133;SDS011;2585;48.696;10.066;2023-09-08T05:40:41;13.30;;;7.10;;
5133;SDS011;2585;48.696;10.066;2023-09-08T05:43:09;12.20;;;7.00;;
5133;SDS011;2585;48.696;10.066;2023-09-08T05:45:36;8.93;;;6.67;;
5133;SDS011;2585;48.696;10.066;2023-09-08T05:48:03;9.97;;;7.30;;
5133;SDS011;2585;48.696;10.066;2023-09-08T05:50:30;10.03;;;7.30;;
5133;SDS011;2585;48.696;10.066;2023-09-08T05:52:57;9.97;;;6.60;;
5133;SDS011;2585;48.696;10.066;2023-09-08T05:55:24;6.97;;;6.03;;
5133;SDS011;2585;48.696;10.066;2023-09-08T05:57:50;8.03;;;6.50;;
5133;SDS011;2585;48.696;10.066;2023-09-08T06:00:17;8.37;;;7.40;;
5133;SDS011;2585;48.696;10.066;2023-09-08T06:02:44;7.43;;;6.30;;
5133;SDS011;2585;48.696;10.066;2023-09-08T06:05:11;11.37;;;7.90;;
5133;SDS011;2585;48.696;10.066;2023-09-08T06:07:38;9.70;;;7.40;;
5133;SDS011;2585;48.696;10.066;2023-09-08T06:10:11;12.00;;;6.90;;
5133;SDS011;2585;48.696;10.066;2023-09-08T06:12:38;10.30;;;7.90;;
5133;SDS011;2585;48.696;10.066;2023-09-08T06:15:05;13.67;;;8.03;;
5133;SDS011;2585;48.696;10.066;2023-09-08T06:17:32;11.47;;;8.27;;
5133;SDS011;2585;48.696;10.066;2023-09-08T06:19:59;10.00;;;7.87;;
5133;SDS011;2585;48.696;10.066;2023-09-08T06:22:26;12.27;;;9.30;;
5133;SDS011;2585;48.696;10.066;2023-09-08T06:24:53;11.60;;;7.17;;
5133;SDS011;2585;48.696;10.066;2023-09-08T06:27:20;14.37;;;8.00;;
5133;SDS011;2585;48.696;10.066;2023-09-08T06:29:47;20.37;;;8.67;;
5133;SDS011;2585;48.696;10.066;2023-09-08T06:32:13;11.10;;;9.40;;
5133;SDS011;2585;48.696;10.066;2023-09-08T06:34:40;13.33;;;7.53;;
5133;SDS011;2585;48.696;10.066;2023-09-08T06:37:09;9.73;;;8.00;;
5133;SDS011;2585;48.696;10.066;2023-09-08T06:39:36;10.43;;;8.10;;
5133;SDS011;2585;48.696;10.066;2023-09-08T06:42:03;13.83;;;7.80;;
5133;SDS011;2585;48.696;10.066;2023-09-08T06:44:30;11.73;;;8.70;;
5133;SDS011;2585;48.696;10.066;2023-09-08T06:46:57;15.17;;;8.73;;
5133;SDS011;2585;48.696;10.066;2023-09-08T06:49:24;10.03;;;8.53;;
5133;SDS011;2585;48.696;10.066;2023-09-08T06:51:51;10.20;;;7.57;;
5133;SDS011;2585;48.696;10.066;2023-09-08T06:54:17;16.20;;;7.70;;
5133;SDS011;2585;48.696;10.066;2023-09-08T06:56:45;7.87;;;7.03;;
5133;SDS011;2585;48.696;10.066;2023-09-08T06:59:11;11.73;;;6.90;;
5133;SDS011;2585;48.696;10.066;2023-09-08T07:01:38;6.93;;;6.23;;
5133;SDS011;2585;48.696;10.066;2023-09-08T07:04:05;7.13;;;5.80;;
5133;SDS011;2585;48.696;10.066;2023-09-08T07:06:32;10.20;;;6.47;;
5133;SDS011;2585;48.696;10.066;2023-09-08T07:09:01;7.17;;;6.00;;
5133;SDS011;2585;48.696;10.066;2023-09-08T07:11:28;11.10;;;7.80;;
5133;SDS011;2585;48.696;10.066;2023-09-08T07:13:56;11.20;;;6.97;;
5133;SDS011;2585;48.696;10.066;2023-09-08T07:16:23;7.70;;;6.63;;
5133;SDS011;2585;48.696;10.066;2023-09-08T07:18:50;8.77;;;6.23;;
5133;SDS011;2585;48.696;10.066;2023-09-08T07:21:17;5.53;;;4.90;;
5133;SDS011;2585;48.696;10.066;2023-09-08T07:23:44;9.70;;;7.30;;
5133;SDS011;2585;48.696;10.066;2023-09-08T07:26:11;7.80;;;5.80;;
5133;SDS011;2585;48.696;10.066;2023-09-08T07:28:38;7.30;;;5.90;;
5133;SDS011;2585;48.696;10.066;2023-09-08T07:31:05;6.90;;;6.10;;
5133;SDS011;2585;48.696;10.066;2023-09-08T07:33:35;8.50;;;6.10;;
5133;SDS011;2585;48.696;10.066;2023-09-08T07:36:06;8.70;;;5.87;;
5133;SDS011;2585;48.696;10.066;2023-09-08T07:38:34;8.50;;;6.20;;
5133;SDS011;2585;48.696;10.066;2023-09-08T07:41:02;13.43;;;6.67;;
5133;SDS011;2585;48.696;10.066;2023-09-08T07:43:29;10.27;;;6.77;;
5133;SDS011;2585;48.696;10.066;2023-09-08T07:45:56;9.13;;;6.30;;
5133;SDS011;2585;48.696;10.066;2023-09-08T07:48:23;13.20;;;6.40;;
5133;SDS011;2585;48.696;10.066;2023-09-08T07:50:50;9.87;;;6.90;;
5133;SDS011;2585;48.696;10.066;2023-09-08T07:53:16;8.33;;;6.77;;
5133;SDS011;2585;48.696;10.066;2023-09-08T07:55:43;8.53;;;6.27;;
5133;SDS011;2585;48.696;10.066;2023-09-08T07:58:10;8.67;;;6.70;;
5133;SDS011;2585;48.696;10.066;2023-09-08T08:00:37;9.43;;;6.27;;
5133;SDS011;2585;48.696;10.066;2023-09-08T08:03:04;7.90;;;6.13;;
5133;SDS011;2585;48.696;10.066;2023-09-08T08:05:32;8.63;;;6.70;;
5133;SDS011;2585;48.696;10.066;2023-09-08T08:07:59;9.97;;;6.03;;
5133;SDS011;2585;48.696;10.066;2023-09-08T08:10:26;7.93;;;5.50;;
5133;SDS011;2585;48.696;10.066;2023-09-08T08:12:53;7.90;;;5.73;;
5133;SDS011;2585;48.696;10.066;2023-09-08T08:15:20;7.60;;;6.17;;
5133;SDS011;2585;48.696;10.066;2023-09-08T08:17:49;13.53;;;6.70;;
5133;SDS011;2585;48.696;10.066;2023-09-08T08:20:16;6.70;;;5.30;;
5133;SDS011;2585;48.696;10.066;2023-09-08T08:22:44;9.90;;;6.37;;
5133;SDS011;2585;48.696;10.066;2023-09-08T08:25:11;9.97;;;5.53;;
5133;SDS011;2585;48.696;10.066;2023-09-08T08:27:39;9.27;;;6.27;;
5133;SDS011;2585;48.696;10.066;2023-09-08T08:30:07;9.00;;;6.13;;
5133;SDS011;2585;48.696;10.066;2023-09-08T08:32:34;5.97;;;5.37;;
5133;SDS011;2585;48.696;10.066;2023-09-08T08:35:01;9.50;;;5.47;;
5133;SDS011;2585;48.696;10.066;2023-09-08T08:37:28;8.43;;;6.07;;
5133;SDS011;2585;48.696;10.066;2023-09-08T08:39:54;6.20;;;5.50;;
5133;SDS011;2585;48.696;10.066;2023-09-08T08:42:21;8.90;;;7.80;;
5133;SDS011;2585;48.696;10.066;2023-09-08T08:44:49;6.50;;;5.70;;
5133;SDS011;2585;48.696;10.066;2023-09-08T08:47:16;6.23;;;5.60;;
5133;SDS011;2585;48.696;10.066;2023-09-08T08:49:45;8.30;;;6.13;;
5133;SDS011;2585;48.696;10.066;2023-09-08T08:52:14;7.13;;;6.20;;
5133;SDS011;2585;48.696;10.066;2023-09-08T08:54:44;6.73;;;6.03;;
5133;SDS011;2585;48.696;10.066;2023-09-08T08:57:12;10.50;;;5.90;;
5133;SDS011;2585;48.696;10.066;2023-09-08T08:59:40;6.67;;;5.27;;
5133;SDS011;2585;48.696;10.066;2023-09-08T09:02:08;6.60;;;5.43;;
5133;SDS011;2585;48.696;10.066;2023-09-08T09:04:37;9.33;;;5.63;;
5133;SDS011;2585;48.696;10.066;2023-09-08T09:07:06;8.73;;;5.43;;
5133;SDS011;2585;48.696;10.066;2023-09-08T09:09:34;6.90;;;4.80;;
5133;SDS011;2585;48.696;10.066;2023-09-08T09:12:01;5.73;;;5.03;;
5133;SDS011;2585;48.696;10.066;2023-09-08T09:14:32;7.33;;;5.47;;
5133;SDS011;2585;48.696;10.066;2023-09-08T09:17:00;7.77;;;5.20;;
5133;SDS011;2585;48.696;10.066;2023-09-08T09:19:30;7.40;;;5.83;;
5133;SDS011;2585;48.696;10.066;2023-09-08T09:21:58;8.33;;;6.13;;
5133;SDS011;2585;48.696;10.066;2023-09-08T09:24:32;9.60;;;5.30;;
5133;SDS011;2585;48.696;10.066;2023-09-08T09:27:12;11.27;;;5.83;;
5133;SDS011;2585;48.696;10.066;2023-09-08T09:29:45;6.70;;;5.20;;
5133;SDS011;2585;48.696;10.066;2023-09-08T09:32:13;14.13;;;5.40;;
5133;SDS011;2585;48.696;10.066;2023-09-08T09:34:48;9.90;;;5.37;;
5133;SDS011;2585;48.696;10.066;2023-09-08T09:37:23;7.30;;;5.60;;
5133;SDS011;2585;48.696;10.066;2023-09-08T09:39:50;7.80;;;4.50;;
5133;SDS011;2585;48.696;10.066;2023-09-08T09:42:19;6.33;;;5.40;;
5133;SDS011;2585;48.696;10.066;2023-09-08T09:44:47;6.53;;;4.70;;
5133;SDS011;2585;48.696;10.066;2023-09-08T09:47:15;6.67;;;5.00;;
5133;SDS011;2585;48.696;10.066;2023-09-08T09:49:43;7.83;;;5.40;;
5133;SDS011;2585;48.696;10.066;2023-09-08T09:52:14;8.13;;;5.40;;
5133;SDS011;2585;48.696;10.066;2023-09-08T09:54:49;7.53;;;5.27;;
5133;SDS011;2585;48.696;10.066;2023-09-08T09:57:21;11.10;;;4.93;;
5133;SDS011;2585;48.696;10.066;2023-09-08T09:59:48;6.23;;;4.70;;
5133;SDS011;2585;48.696;10.066;2023-09-08T10:02:17;6.67;;;4.73;;
5133;SDS011;2585;48.696;10.066;2023-09-08T10:04:49;5.90;;;4.90;;
5133;SDS011;2585;48.696;10.066;2023-09-08T10:07:17;7.17;;;5.07;;
5133;SDS011;2585;48.696;10.066;2023-09-08T10:09:44;5.50;;;4.90;;
5133;SDS011;2585;48.696;10.066;2023-09-08T10:12:13;5.93;;;5.17;;
5133;SDS011;2585;48.696;10.066;2023-09-08T10:14:44;7.20;;;5.23;;
5133;SDS011;2585;48.696;10.066;2023-09-08T10:17:15;5.83;;;5.10;;
5133;SDS011;2585;48.696;10.066;2023-09-08T10:19:45;5.70;;;4.83;;
5133;SDS011;2585;48.696;10.066;2023-09-08T10:22:19;9.60;;;5.53;;
5133;SDS011;2585;48.696;10.066;2023-09-08T10:24:49;7.23;;;5.53;;
5133;SDS011;2585;48.696;10.066;2023-09-08T10:27:19;8.07;;;5.17;;
5133;SDS011;2585;48.696;10.066;2023-09-08T10:29:51;4.63;;;4.20;;
5133;SDS011;2585;48.696;10.066;2023-09-08T10:32:19;13.23;;;5.37;;
5133;SDS011;2585;48.696;10.066;2023-09-08T10:34:47;6.27;;;5.07;;
5133;SDS011;2585;48.696;10.066;2023-09-08T10:37:22;6.70;;;5.10;;
5133;SDS011;2585;48.696;10.066;2023-09-08T10:39:56;6.53;;;4.93;;
5133;SDS011;2585;48.696;10.066;2023-09-08T10:42:43;6.00;;;5.40;;
5133;SDS011;2585;48.696;10.066;2023-09-08T10:45:14;5.27;;;4.50;;
5133;SDS011;2585;48.696;10.066;2023-09-08T10:50:19;8.03;;;5.50;;
5133;SDS011;2585;48.696;10.066;2023-09-08T10:55:40;5.40;;;4.03;;
5133;SDS011;2585;48.696;10.066;2023-09-08T10:58:37;5.63;;;5.10;;
5133;SDS011;2585;48.696;10.066;2023-09-08T11:01:07;8.10;;;5.60;;
5133;SDS011;2585;48.696;10.066;2023-09-08T11:06:04;7.60;;;4.93;;
5133;SDS011;2585;48.696;10.066;2023-09-08T11:08:40;6.47;;;5.23;;
5133;SDS011;2585;48.696;10.066;2023-09-08T11:11:11;5.50;;;4.70;;
5133;SDS011;2585;48.696;10.066;2023-09-08T11:13:40;4.70;;;4.27;;
5133;SDS011;2585;48.696;10.066;2023-09-08T11:16:07;6.63;;;4.60;;
5133;SDS011;2585;48.696;10.066;2023-09-08T11:18:34;7.20;;;5.17;;
5133;SDS011;2585;48.696;10.066;2023-09-08T11:21:03;6.13;;;5.07;;
5133;SDS011;2585;48.696;10.066;2023-09-08T11:23:34;5.33;;;4.77;;
5133;SDS011;2585;48.696;10.066;2023-09-08T11:26:01;5.77;;;4.63;;
5133;SDS011;2585;48.696;10.066;2023-09-08T11:28:28;5.40;;;4.90;;
5133;SDS011;2585;48.696;10.066;2023-09-08T11:30:55;13.40;;;4.67;;
5133;SDS011;2585;48.696;10.066;2023-09-08T11:33:23;5.93;;;5.30;;
5133;SDS011;2585;48.696;10.066;2023-09-08T11:35:52;7.07;;;4.73;;
5133;SDS011;2585;48.696;10.066;2023-09-08T11:38:24;5.57;;;5.07;;
5133;SDS011;2585;48.696;10.066;2023-09-08T11:40:53;5.03;;;4.60;;
5133;SDS011;2585;48.696;10.066;2023-09-08T11:43:23;6.10;;;4.60;;
5133;SDS011;2585;48.696;10.066;2023-09-08T11:45:52;4.70;;;4.30;;
5133;SDS011;2585;48.696;10.066;2023-09-08T11:48:19;5.17;;;4.67;;
5133;SDS011;2585;48.696;10.066;2023-09-08T11:50:46;5.90;;;5.30;;
5133;SDS011;2585;48.696;10.066;2023-09-08T11:53:12;7.23;;;5.00;;
5133;SDS011;2585;48.696;10.066;2023-09-08T11:55:47;5.67;;;5.07;;
5133;SDS011;2585;48.696;10.066;2023-09-08T11:58:15;4.77;;;4.27;;
5133;SDS011;2585;48.696;10.066;2023-09-08T12:00:44;4.60;;;4.20;;
5133;SDS011;2585;48.696;10.066;2023-09-08T12:03:14;6.83;;;4.60;;
5133;SDS011;2585;48.696;10.066;2023-09-08T12:05:50;7.80;;;4.40;;
5133;SDS011;2585;48.696;10.066;2023-09-08T12:08:18;6.27;;;4.70;;
5133;SDS011;2585;48.696;10.066;2023-09-08T12:10:44;5.67;;;4.60;;
5133;SDS011;2585;48.696;10.066;2023-09-08T12:13:11;4.87;;;4.47;;
5133;SDS011;2585;48.696;10.066;2023-09-08T12:15:41;7.77;;;4.77;;
5133;SDS011;2585;48.696;10.066;2023-09-08T12:18:13;7.90;;;5.23;;
5133;SDS011;2585;48.696;10.066;2023-09-08T12:20:43;7.03;;;4.87;;
5133;SDS011;2585;48.696;10.066;2023-09-08T12:23:20;6.20;;;4.73;;
5133;SDS011;2585;48.696;10.066;2023-09-08T12:25:49;5.10;;;4.60;;
5133;SDS011;2585;48.696;10.066;2023-09-08T12:28:21;6.40;;;4.43;;
5133;SDS011;2585;48.696;10.066;2023-09-08T12:30:49;5.20;;;4.40;;
5133;SDS011;2585;48.696;10.066;2023-09-08T12:33:16;5.43;;;4.67;;
5133;SDS011;2585;48.696;10.066;2023-09-08T12:35:46;5.10;;;4.60;;
5133;SDS011;2585;48.696;10.066;2023-09-08T12:38:19;5.27;;;4.77;;
5133;SDS011;2585;48.696;10.066;2023-09-08T12:40:46;10.93;;;4.53;;
5133;SDS011;2585;48.696;10.066;2023-09-08T12:43:14;4.87;;;4.43;;
5133;SDS011;2585;48.696;10.066;2023-09-08T12:45:53;5.37;;;4.47;;
5133;SDS011;2585;48.696;10.066;2023-09-08T12:48:20;5.27;;;4.73;;
5133;SDS011;2585;48.696;10.066;2023-09-08T12:50:47;6.77;;;4.50;;
5133;SDS011;2585;48.696;10.066;2023-09-08T12:53:15;5.10;;;4.60;;
5133;SDS011;2585;48.696;10.066;2023-09-08T12:55:46;5.20;;;4.63;;
5133;SDS011;2585;48.696;10.066;2023-09-08T12:58:13;5.13;;;4.63;;
5133;SDS011;2585;48.696;10.066;2023-09-08T13:00:41;5.23;;;4.80;;
5133;SDS011;2585;48.696;10.066;2023-09-08T13:03:09;6.80;;;4.77;;
5133;SDS011;2585;48.696;10.066;2023-09-08T13:05:36;5.20;;;4.70;;
5133;SDS011;2585;48.696;10.066;2023-09-08T13:08:05;4.80;;;4.40;;
5133;SDS011;2585;48.696;10.066;2023-09-08T13:10:32;5.70;;;5.20;;
5133;SDS011;2585;48.696;10.066;2023-09-08T13:12:59;4.70;;;4.30;;
5133;SDS011;2585;48.696;10.066;2023-09-08T13:15:26;4.67;;;4.27;;
5133;SDS011;2585;48.696;10.066;2023-09-08T13:17:53;5.40;;;4.90;;
5133;SDS011;2585;48.696;10.066;2023-09-08T13:20:21;5.00;;;4.50;;
5133;SDS011;2585;48.696;10.066;2023-09-08T13:22:48;6.40;;;4.60;;
5133;SDS011;2585;48.696;10.066;2023-09-08T13:25:15;5.33;;;4.23;;
5133;SDS011;2585;48.696;10.066;2023-09-08T13:27:41;4.67;;;4.20;;
5133;SDS011;2585;48.696;10.066;2023-09-08T13:32:36;5.23;;;4.73;;
5133;SDS011;2585;48.696;10.066;2023-09-08T13:35:04;5.23;;;4.73;;
5133;SDS011;2585;48.696;10.066;2023-09-08T13:37:32;7.50;;;4.60;;
5133;SDS011;2585;48.696;10.066;2023-09-08T13:40:01;6.30;;;4.67;;
5133;SDS011;2585;48.696;10.066;2023-09-08T13:42:30;4.97;;;4.47;;
5133;SDS011;2585;48.696;10.066;2023-09-08T13:44:57;5.30;;;4.80;;
5133;SDS011;2585;48.696;10.066;2023-09-08T13:47:25;5.10;;;4.60;;
5133;SDS011;2585;48.696;10.066;2023-09-08T13:49:53;5.40;;;4.90;;
5133;SDS011;2585;48.696;10.066;2023-09-08T13:52:23;5.17;;;4.70;;
5133;SDS011;2585;48.696;10.066;2023-09-08T13:54:55;6.77;;;4.90;;
5133;SDS011;2585;48.696;10.066;2023-09-08T13:57:25;6.33;;;4.70;;
5133;SDS011;2585;48.696;10.066;2023-09-08T13:59:54;5.50;;;4.97;;
5133;SDS011;2585;48.696;10.066;2023-09-08T14:02:23;5.40;;;4.90;;
5133;SDS011;2585;48.696;10.066;2023-09-08T14:04:53;5.63;;;5.03;;
5133;SDS011;2585;48.696;10.066;2023-09-08T14:07:21;11.93;;;5.60;;
5133;SDS011;2585;48.696;10.066;2023-09-08T14:09:57;6.83;;;5.10;;
5133;SDS011;2585;48.696;10.066;2023-09-08T14:12:41;5.90;;;4.77;;
5133;SDS011;2585;48.696;10.066;2023-09-08T14:15:08;5.50;;;5.00;;
5133;SDS011;2585;48.696;10.066;2023-09-08T14:17:35;5.90;;;5.10;;
5133;SDS011;2585;48.696;10.066;2023-09-08T14:20:02;5.70;;;4.80;;
5133;SDS011;2585;48.696;10.066;2023-09-08T14:22:30;4.90;;;4.50;;
5133;SDS011;2585;48.696;10.066;2023-09-08T14:24:56;6.90;;;4.80;;
5133;SDS011;2585;48.696;10.066;2023-09-08T14:27:23;6.10;;;5.00;;
5133;SDS011;2585;48.696;10.066;2023-09-08T14:29:50;6.07;;;5.20;;
5133;SDS011;2585;48.696;10.066;2023-09-08T14:32:17;5.20;;;4.53;;
5133;SDS011;2585;48.696;10.066;2023-09-08T14:34:44;6.20;;;5.60;;
5133;SDS011;2585;48.696;10.066;2023-09-08T14:37:11;5.53;;;4.80;;
5133;SDS011;2585;48.696;10.066;2023-09-08T14:39:37;5.60;;;5.10;;
5133;SDS011;2585;48.696;10.066;2023-09-08T14:42:04;7.07;;;5.70;;
5133;SDS011;2585;48.696;10.066;2023-09-08T14:44:32;6.50;;;5.50;;
5133;SDS011;2585;48.696;10.066;2023-09-08T14:46:58;6.90;;;5.33;;
5133;SDS011;2585;48.696;10.066;2023-09-08T14:49:25;6.80;;;5.50;;
5133;SDS011;2585;48.696;10.066;2023-09-08T14:51:52;6.70;;;5.40;;
5133;SDS011;2585;48.696;10.066;2023-09-08T14:54:19;5.43;;;4.50;;
5133;SDS011;2585;48.696;10.066;2023-09-08T14:56:46;6.07;;;5.20;;
5133;SDS011;2585;48.696;10.066;2023-09-08T14:59:13;7.30;;;5.00;;
5133;SDS011;2585;48.696;10.066;2023-09-08T15:01:39;5.93;;;4.97;;
5133;SDS011;2585;48.696;10.066;2023-09-08T15:04:07;9.23;;;4.87;;
5133;SDS011;2585;48.696;10.066;2023-09-08T15:06:34;8.77;;;4.70;;
5133;SDS011;2585;48.696;10.066;2023-09-08T15:09:01;7.87;;;5.57;;
5133;SDS011;2585;48.696;10.066;2023-09-08T15:11:28;5.80;;;4.97;;
5133;SDS011;2585;48.696;10.066;2023-09-08T15:13:55;5.57;;;4.77;;
5133;SDS011;2585;48.696;10.066;2023-09-08T15:16:22;6.67;;;5.27;;
5133;SDS011;2585;48.696;10.066;2023-09-08T15:18:49;4.97;;;4.47;;
5133;SDS011;2585;48.696;10.066;2023-09-08T15:21:16;13.93;;;5.23;;